KWRB

Robins AFB Airport

Warner Robins, Georgia, USA
TAF KWRB 182100Z 1821/2003 01009KT 9999 SKC QNH3002INS BECMG 1902/1903 07006KT 9999 FEW250 QNH3011INS BECMG 1911/1912 08006KT 9999 SCT020 BKN120 QNH3008INS BECMG 2002/2003 VRB06KT 8000 BR BKN001 QNH2998INS TX18/1921Z TN05/1913Z
Issued Valid From Valid To
Dec-18 @ 21:00 UTC
(3 hours ago)
Dec-18 @ 21:00 UTC
(3 hours ago)
Dec-20 @ 03:00 UTC
(-1 days ago)
Dec-18 @ 21:00 to Dec-19 @ 02:00
TAF KWRB 182100Z 1821/2003 01009KT 9999 SKC QNH3002INS
Wind Visibility Clouds Readings
10° at 9 knots Greater than 6 miles
  • Clear skies
Altimeter 30.03" Hg
Pressure 1017 hPa
Becoming Dec-19 @ 02:00 to Dec-19 @ 11:00
BECMG 1902/1903 07006KT 9999 FEW250 QNH3011INS
Wind Visibility Clouds Readings
70° at 6 knots Greater than 6 miles
  • Few at 25,000' AGL
Altimeter 30.12" Hg
Pressure 1020 hPa
Becoming Dec-19 @ 11:00 to Dec-20 @ 02:00
BECMG 1911/1912 08006KT 9999 SCT020 BKN120 QNH3008INS
Wind Visibility Clouds Readings
80° at 6 knots Greater than 6 miles
  • Scattered at 2,000' AGL
  • Broken at 12,000' AGL
Altimeter 30.09" Hg
Pressure 1019 hPa
Becoming Dec-20 @ 02:00 to Dec-20 @ 03:00
BECMG 2002/2003 VRB06KT 8000 BR BKN001 QNH2998INS TX18/1921Z TN05/1913Z
Wind Visibility Clouds Conditions Readings
Variable at 6 knots 5.0 miles
  • Broken at 100' AGL
  • Mist
Altimeter 29.97" Hg
Pressure 1015 hPa
TAF KWRB 182100Z 1821/2003 01009KT 9999 SKC QNH3002INS BECMG 1902/1903 07006KT 9999 FEW250 QNH3011INS BECMG 1911/1912 08006KT 9999 SCT020 BKN120 QNH3008INS BECMG 2002/2003 VRB06KT 8000 BR BKN001 QNH2998INS TX18/1921Z TN05/1913Z
Issued Dec-18 @ 21:00 UTC
(3 hours ago)
Valid From Dec-18 @ 21:00 UTC
(3 hours ago)
Valid To Dec-20 @ 03:00 UTC
(-1 days ago)
Dec-18 @ 21:00 - Dec-19 @ 02:00
Wind Visibility
10° at 9 knots Greater than 6 miles
Clouds
  • Clear skies
Becoming Dec-19 @ 02:00 - Dec-19 @ 11:00
Wind Visibility
70° at 6 knots Greater than 6 miles
Clouds
  • Few at 25,000' AGL
Becoming Dec-19 @ 11:00 - Dec-20 @ 02:00
Wind Visibility
80° at 6 knots Greater than 6 miles
Clouds
  • Scattered at 2,000' AGL
  • Broken at 12,000' AGL
Becoming Dec-20 @ 02:00 - Dec-20 @ 03:00
Wind Visibility
Variable at 6 knots 5.0 miles
Clouds
  • Broken at 100' AGL
Conditions
  • Mist